Terminal Aerodrome Forecast
Issued by NWS Huntsville, AL

Home | Current Version | Previous Version | Text Only | Print | Product List | Glossary On
Versions: 1 2 3 4 5 6 7 8 9 10 11 12 13 14 15 16 17
000
FTUS44 KHUN 221720
TAFMSL
TAF
KMSL 221720Z 2218/2318 16010KT P6SM VCSH SCT020 BKN035 OVC050
     FM222000 21010KT P6SM SCT030 BKN120
     FM230000 16005KT P6SM BKN050
     FM230900 18006KT P6SM BKN015
     FM231500 19008KT P6SM OVC030=

USA.gov is the U.S. government's official web portal to all federal, state and local government web resources and services.